Terminal Aerodrome Forecast
Issued by NWS

Home | Current Version | Previous Version | Text Only | Print | Product List | Glossary On
Versions: 1 2 3 4 5 6 7 8 9 10 11 12 13 14 15 16 17
000
FTUS45 KPSR 250900 AAB
TAFIPL
TAF AMD
KIPL 250958Z 2510/2606 24009G17KT P6SM FEW050
     FM251700 31010G20KT P6SM BKN050
     FM252200 32011KT P6SM FEW070=

USA.gov is the U.S. government's official web portal to all federal, state and local government web resources and services.